Time;durP1;ratioP1;P1;durP2;ratioP2;P2;SDS_P1;SDS_P2;PMS_P1;PMS_P2;Temp;Humidity;BMP_temperature;BMP_pressure;BME280_temperature;BME280_humidity;BME280_pressure;Samples;Min_cycle;Max_cycle;Signal;HPM_P1;HPM_P2
2022/11/29 18:58:22;;;;;;;19.80;4.47;;;;;;;;;;5077255;28;20642;-73
2022/11/29 19:00:47;;;;;;;24.70;4.50;;;;;;;;;;5049426;28;20535;-62
2022/11/29 19:03:12;;;;;;;18.00;4.40;;;;;;;;;;5049969;28;20075;-77
2022/11/29 19:05:37;;;;;;;17.03;4.30;;;;;;;;;;5061426;28;20027;-76
2022/11/29 19:08:03;;;;;;;15.18;3.95;;;;;;;;;;5063283;28;20040;-79
2022/11/29 19:13:16;;;;;;;37.42;20.73;;;;;;;;;;5049620;28;21213;-59
2022/11/29 19:15:41;;;;;;;36.83;19.30;;;;;;;;;;5044142;28;20025;-58
2022/11/29 19:18:06;;;;;;;38.93;20.13;;;;;;;;;;5062958;28;20021;-60
2022/11/29 19:20:32;;;;;;;39.20;19.60;;;;;;;;;;5054632;28;20415;-59
2022/11/29 19:22:57;;;;;;;40.83;19.87;;;;;;;;;;5043715;28;20079;-59
2022/11/29 19:25:22;;;;;;;39.43;17.20;;;;;;;;;;5042506;28;20487;-60
2022/11/29 19:27:47;;;;;;;42.03;17.67;;;;;;;;;;5038925;28;20033;-59
2022/11/29 19:30:14;;;;;;;40.50;16.30;;;;;;;;;;5032485;28;20053;-58
2022/11/29 19:32:40;;;;;;;38.40;17.08;;;;;;;;;;5043743;28;20036;-58
2022/11/29 19:35:05;;;;;;;44.00;17.80;;;;;;;;;;5043505;28;20025;-58
2022/11/29 19:37:30;;;;;;;40.47;17.70;;;;;;;;;;5043587;28;20021;-58
2022/11/29 19:39:55;;;;;;;39.75;16.40;;;;;;;;;;5041559;28;20606;-59
2022/11/29 19:42:21;;;;;;;41.50;17.40;;;;;;;;;;5043702;28;20037;-59
2022/11/29 19:44:46;;;;;;;44.88;17.58;;;;;;;;;;5044262;28;20027;-57
2022/11/29 19:47:11;;;;;;;40.03;16.63;;;;;;;;;;5041904;28;20033;-59
2022/11/29 19:49:38;;;;;;;41.17;17.37;;;;;;;;;;5040414;28;20041;-59
2022/11/29 19:52:04;;;;;;;43.20;18.65;;;;;;;;;;5037921;28;20035;-59
2022/11/29 19:54:29;;;;;;;39.30;16.83;;;;;;;;;;5035509;28;20085;-59
2022/11/29 19:56:54;;;;;;;42.33;17.33;;;;;;;;;;5041938;28;20025;-59
2022/11/29 19:59:19;;;;;;;46.60;19.77;;;;;;;;;;5038712;28;20039;-59
2022/11/29 20:01:44;;;;;;;41.23;17.67;;;;;;;;;;5039653;28;20108;-60
2022/11/29 20:04:11;;;;;;;40.63;16.97;;;;;;;;;;5042840;28;20033;-59
2022/11/29 20:06:36;;;;;;;45.63;19.35;;;;;;;;;;5042010;28;21583;-58
2022/11/29 20:09:01;;;;;;;42.10;17.40;;;;;;;;;;5040651;28;20847;-58
2022/11/29 20:11:26;;;;;;;43.97;17.70;;;;;;;;;;5039332;28;20564;-59
2022/11/29 20:13:56;;;;;;;44.23;16.70;;;;;;;;;;5042318;28;20083;-58
2022/11/29 20:16:22;;;;;;;41.33;16.88;;;;;;;;;;5042997;28;21843;-58
2022/11/29 20:18:48;;;;;;;41.88;17.08;;;;;;;;;;5042254;28;20108;-58
2022/11/29 20:21:20;;;;;;;43.80;19.55;;;;;;;;;;5041646;28;20033;-58
2022/11/29 20:23:46;;;;;;;41.45;17.75;;;;;;;;;;5028932;28;20031;-59
2022/11/29 20:26:13;;;;;;;43.60;17.50;;;;;;;;;;5029752;28;20151;-59
2022/11/29 20:28:38;;;;;;;39.70;17.55;;;;;;;;;;5024589;28;20033;-60
2022/11/29 20:31:04;;;;;;;42.20;18.10;;;;;;;;;;5028750;28;20480;-62
2022/11/29 20:33:29;;;;;;;43.95;17.48;;;;;;;;;;5023489;28;20025;-61
2022/11/29 20:36:18;;;;;;;44.23;17.03;;;;;;;;;;5025076;28;20026;-59
2022/11/29 20:38:49;;;;;;;37.08;16.20;;;;;;;;;;5014795;28;20051;-58
2022/11/29 20:41:18;;;;;;;38.85;16.77;;;;;;;;;;5026567;28;20014;-59
2022/11/29 20:43:48;;;;;;;39.33;16.70;;;;;;;;;;5022791;28;20083;-59
2022/11/29 20:46:13;;;;;;;39.85;16.95;;;;;;;;;;5027874;28;20025;-58
2022/11/29 20:48:38;;;;;;;39.07;16.57;;;;;;;;;;5028424;28;20421;-58
2022/11/29 20:51:04;;;;;;;38.87;16.50;;;;;;;;;;5025915;28;20504;-58
2022/11/29 20:53:37;;;;;;;38.35;16.40;;;;;;;;;;5021799;28;20010;-57
2022/11/29 20:56:03;;;;;;;42.53;17.80;;;;;;;;;;5038757;28;20491;-58
2022/11/29 20:58:28;;;;;;;35.92;15.40;;;;;;;;;;5026803;28;20068;-58
2022/11/29 21:00:54;;;;;;;36.93;15.83;;;;;;;;;;5039009;28;20053;-58
2022/11/29 21:03:19;;;;;;;35.13;14.63;;;;;;;;;;5038925;28;20009;-59
2022/11/29 21:05:45;;;;;;;37.03;15.87;;;;;;;;;;5030441;28;20014;-59
2022/11/29 21:08:11;;;;;;;39.30;16.60;;;;;;;;;;5028130;28;20022;-59
2022/11/29 21:10:36;;;;;;;37.47;16.42;;;;;;;;;;5021432;28;20491;-61
2022/11/29 21:13:01;;;;;;;36.57;15.93;;;;;;;;;;5045328;28;20041;-59
2022/11/29 21:15:27;;;;;;;38.75;15.65;;;;;;;;;;5042037;28;20024;-60
2022/11/29 21:17:52;;;;;;;36.90;16.05;;;;;;;;;;5051477;28;20029;-60
2022/11/29 21:20:20;;;;;;;37.73;16.60;;;;;;;;;;5049788;28;20045;-60
2022/11/29 21:22:52;;;;;;;36.70;15.77;;;;;;;;;;5049857;28;20021;-59
2022/11/29 21:25:36;;;;;;;34.83;14.82;;;;;;;;;;5041336;28;20079;-59
2022/11/29 21:28:02;;;;;;;33.85;14.13;;;;;;;;;;5046371;28;20406;-59
2022/11/29 21:30:27;;;;;;;36.13;15.52;;;;;;;;;;5035784;28;20092;-59
2022/11/29 21:32:52;;;;;;;34.33;15.50;;;;;;;;;;5033120;28;20029;-59
2022/11/29 21:35:17;;;;;;;36.85;15.88;;;;;;;;;;5030769;28;20228;-59
2022/11/29 21:37:43;;;;;;;36.53;14.90;;;;;;;;;;5029860;28;20029;-58
2022/11/29 21:40:08;;;;;;;35.72;14.52;;;;;;;;;;5034996;28;20071;-58
2022/11/29 21:42:34;;;;;;;34.03;14.52;;;;;;;;;;5037940;28;20021;-58
2022/11/29 21:45:00;;;;;;;34.17;14.25;;;;;;;;;;5031028;28;20033;-59
2022/11/29 21:47:25;;;;;;;33.90;15.03;;;;;;;;;;5028917;28;20079;-59
2022/11/29 21:49:51;;;;;;;30.73;14.47;;;;;;;;;;5030610;28;20507;-59
2022/11/29 21:52:16;;;;;;;33.28;14.95;;;;;;;;;;5027287;28;20029;-58
2022/11/29 21:54:42;;;;;;;31.47;14.33;;;;;;;;;;5026281;28;20092;-60
2022/11/29 21:57:07;;;;;;;33.73;14.77;;;;;;;;;;5028739;28;20474;-60
2022/11/29 21:59:32;;;;;;;33.33;13.27;;;;;;;;;;5028781;28;20055;-60
2022/11/29 22:01:57;;;;;;;35.40;14.90;;;;;;;;;;5031179;28;20033;-59
2022/11/29 22:04:22;;;;;;;31.80;14.90;;;;;;;;;;5029064;28;20449;-59
2022/11/29 22:06:47;;;;;;;36.87;14.97;;;;;;;;;;5031037;28;20033;-60
2022/11/29 22:09:13;;;;;;;32.90;13.00;;;;;;;;;;5026629;28;20452;-60
2022/11/29 22:11:38;;;;;;;32.60;13.63;;;;;;;;;;5029507;28;20504;-60
2022/11/29 22:14:14;;;;;;;33.55;13.95;;;;;;;;;;5029554;28;20589;-60
2022/11/29 22:16:41;;;;;;;32.65;13.13;;;;;;;;;;5028317;28;20029;-59
2022/11/29 22:19:06;;;;;;;33.63;14.50;;;;;;;;;;5027085;28;20059;-59
2022/11/29 22:21:31;;;;;;;32.93;13.77;;;;;;;;;;5026602;28;20029;-59
2022/11/29 22:23:56;;;;;;;30.40;13.97;;;;;;;;;;5027314;28;20111;-59
2022/11/29 22:26:22;;;;;;;34.07;14.53;;;;;;;;;;5028721;28;20029;-59
2022/11/29 22:28:47;;;;;;;31.30;13.57;;;;;;;;;;5028633;28;20029;-59
2022/11/29 22:31:12;;;;;;;30.70;14.00;;;;;;;;;;5028796;28;20481;-60
2022/11/29 22:33:37;;;;;;;30.13;13.37;;;;;;;;;;5026690;28;20481;-60
2022/11/29 22:36:06;;;;;;;30.20;13.80;;;;;;;;;;5026807;28;20479;-59
2022/11/29 22:38:31;;;;;;;32.42;14.23;;;;;;;;;;5026640;28;20063;-58
2022/11/29 22:41:00;;;;;;;31.17;13.53;;;;;;;;;;5026483;28;20108;-59
2022/11/29 22:43:26;;;;;;;32.28;14.85;;;;;;;;;;5026943;28;20107;-58
2022/11/29 22:45:51;;;;;;;29.40;13.48;;;;;;;;;;5029224;28;20063;-58
2022/11/29 22:48:16;;;;;;;31.57;13.60;;;;;;;;;;5029560;28;20021;-58
2022/11/29 22:50:41;;;;;;;30.23;13.57;;;;;;;;;;5028590;28;20036;-59
2022/11/29 22:53:06;;;;;;;30.80;13.97;;;;;;;;;;5026141;28;20025;-58
2022/11/29 22:55:31;;;;;;;29.43;13.80;;;;;;;;;;5024548;28;20503;-58
2022/11/29 22:57:57;;;;;;;30.30;14.07;;;;;;;;;;5025225;28;20021;-59
2022/11/29 23:00:22;;;;;;;31.23;13.57;;;;;;;;;;5027252;28;20465;-59
2022/11/29 23:02:47;;;;;;;33.83;14.23;;;;;;;;;;5027631;28;20022;-58
2022/11/29 23:05:12;;;;;;;28.83;13.57;;;;;;;;;;5029975;28;20634;-58
2022/11/29 23:07:37;;;;;;;31.17;13.60;;;;;;;;;;5028505;28;20049;-58
2022/11/29 23:10:03;;;;;;;28.23;12.67;;;;;;;;;;5028505;28;20029;-58
2022/11/29 23:12:28;;;;;;;32.37;14.53;;;;;;;;;;5027402;28;20038;-58
2022/11/29 23:14:53;;;;;;;32.93;14.20;;;;;;;;;;5027065;28;20204;-59
2022/11/29 23:17:18;;;;;;;29.50;12.50;;;;;;;;;;5026095;28;20436;-59
2022/11/29 23:19:43;;;;;;;30.93;14.33;;;;;;;;;;5026147;28;20108;-59
2022/11/29 23:22:08;;;;;;;31.77;14.03;;;;;;;;;;5026636;28;20439;-59
2022/11/29 23:24:34;;;;;;;29.98;13.77;;;;;;;;;;5027728;28;20037;-58
2022/11/29 23:26:59;;;;;;;31.20;14.37;;;;;;;;;;5029372;28;20473;-59
2022/11/29 23:29:24;;;;;;;31.87;13.60;;;;;;;;;;5027114;28;20030;-58
2022/11/29 23:31:49;;;;;;;31.03;13.87;;;;;;;;;;5028696;28;20029;-58
2022/11/29 23:34:14;;;;;;;33.33;14.17;;;;;;;;;;5028877;28;20029;-58
2022/11/29 23:36:40;;;;;;;32.73;14.30;;;;;;;;;;5028701;28;20027;-58
2022/11/29 23:39:05;;;;;;;31.23;13.75;;;;;;;;;;5028190;28;20354;-58
2022/11/29 23:41:31;;;;;;;31.30;14.52;;;;;;;;;;5028627;28;20111;-58
2022/11/29 23:43:58;;;;;;;30.15;13.10;;;;;;;;;;5027056;28;20025;-58
2022/11/29 23:46:24;;;;;;;30.90;13.23;;;;;;;;;;5027186;28;20037;-58
2022/11/29 23:48:49;;;;;;;32.92;14.73;;;;;;;;;;5027985;28;20595;-58
2022/11/29 23:51:14;;;;;;;30.67;14.03;;;;;;;;;;5027836;28;20038;-58
2022/11/29 23:53:40;;;;;;;28.05;13.35;;;;;;;;;;5028268;28;20116;-58
2022/11/29 23:56:15;;;;;;;32.13;14.10;;;;;;;;;;5028723;28;20633;-58
2022/11/29 23:58:40;;;;;;;31.30;13.50;;;;;;;;;;5029003;28;20033;-59
